sensor_id;sensor_type;location;lat;lon;timestamp;temperature;humidity
67799;SHT30;54596;43.216;27.904;2022-07-04T00:00:03;19.79;71.13
67799;SHT30;54596;43.216;27.904;2022-07-04T00:02:29;19.75;71.05
67799;SHT30;54596;43.216;27.904;2022-07-04T00:04:54;19.70;71.36
67799;SHT30;54596;43.216;27.904;2022-07-04T00:07:20;19.67;71.29
67799;SHT30;54596;43.216;27.904;2022-07-04T00:09:45;19.61;71.41
67799;SHT30;54596;43.216;27.904;2022-07-04T00:12:11;19.58;71.36
67799;SHT30;54596;43.216;27.904;2022-07-04T00:14:36;19.63;71.26
67799;SHT30;54596;43.216;27.904;2022-07-04T00:17:02;19.64;71.20
67799;SHT30;54596;43.216;27.904;2022-07-04T00:19:28;19.65;71.12
67799;SHT30;54596;43.216;27.904;2022-07-04T00:21:53;19.72;71.00
67799;SHT30;54596;43.216;27.904;2022-07-04T00:24:19;19.74;70.92
67799;SHT30;54596;43.216;27.904;2022-07-04T00:26:44;19.72;71.04
67799;SHT30;54596;43.216;27.904;2022-07-04T00:29:10;19.70;71.00
67799;SHT30;54596;43.216;27.904;2022-07-04T00:31:35;19.64;71.45
67799;SHT30;54596;43.216;27.904;2022-07-04T00:34:01;19.60;71.50
67799;SHT30;54596;43.216;27.904;2022-07-04T00:36:26;19.51;71.77
67799;SHT30;54596;43.216;27.904;2022-07-04T00:38:52;19.51;71.84
67799;SHT30;54596;43.216;27.904;2022-07-04T00:41:18;19.47;71.79
67799;SHT30;54596;43.216;27.904;2022-07-04T00:43:43;19.51;71.62
67799;SHT30;54596;43.216;27.904;2022-07-04T00:46:09;19.46;71.88
67799;SHT30;54596;43.216;27.904;2022-07-04T00:48:34;19.41;72.13
67799;SHT30;54596;43.216;27.904;2022-07-04T00:51:00;19.37;72.24
67799;SHT30;54596;43.216;27.904;2022-07-04T00:53:26;19.37;72.15
67799;SHT30;54596;43.216;27.904;2022-07-04T00:55:52;19.29;72.51
67799;SHT30;54596;43.216;27.904;2022-07-04T00:58:22;19.30;72.18
67799;SHT30;54596;43.216;27.904;2022-07-04T01:00:49;19.26;72.25
67799;SHT30;54596;43.216;27.904;2022-07-04T01:03:15;19.22;72.70
67799;SHT30;54596;43.216;27.904;2022-07-04T01:05:42;19.24;72.59
67799;SHT30;54596;43.216;27.904;2022-07-04T01:08:07;19.29;72.59
67799;SHT30;54596;43.216;27.904;2022-07-04T01:10:34;19.29;72.55
67799;SHT30;54596;43.216;27.904;2022-07-04T01:12:59;19.36;72.21
67799;SHT30;54596;43.216;27.904;2022-07-04T01:15:25;19.36;72.18
67799;SHT30;54596;43.216;27.904;2022-07-04T01:17:50;19.47;71.92
67799;SHT30;54596;43.216;27.904;2022-07-04T01:20:16;19.54;71.52
67799;SHT30;54596;43.216;27.904;2022-07-04T01:22:42;19.54;71.50
67799;SHT30;54596;43.216;27.904;2022-07-04T01:25:09;19.55;71.30
67799;SHT30;54596;43.216;27.904;2022-07-04T01:27:34;19.53;71.34
67799;SHT30;54596;43.216;27.904;2022-07-04T01:30:00;19.53;71.23
67799;SHT30;54596;43.216;27.904;2022-07-04T01:32:26;19.50;71.23
67799;SHT30;54596;43.216;27.904;2022-07-04T01:34:52;19.43;71.38
67799;SHT30;54596;43.216;27.904;2022-07-04T01:37:17;19.40;71.49
67799;SHT30;54596;43.216;27.904;2022-07-04T01:39:43;19.36;71.70
67799;SHT30;54596;43.216;27.904;2022-07-04T01:42:09;19.34;71.62
67799;SHT30;54596;43.216;27.904;2022-07-04T01:44:34;19.38;71.65
67799;SHT30;54596;43.216;27.904;2022-07-04T01:47:01;19.33;71.74
67799;SHT30;54596;43.216;27.904;2022-07-04T01:49:27;19.30;71.71
67799;SHT30;54596;43.216;27.904;2022-07-04T01:51:52;19.26;71.79
67799;SHT30;54596;43.216;27.904;2022-07-04T01:54:19;19.27;71.64
67799;SHT30;54596;43.216;27.904;2022-07-04T01:56:44;19.37;71.38
67799;SHT30;54596;43.216;27.904;2022-07-04T01:59:10;19.30;71.46
67799;SHT30;54596;43.216;27.904;2022-07-04T02:01:36;19.26;71.61
67799;SHT30;54596;43.216;27.904;2022-07-04T02:04:03;19.23;71.39
67799;SHT30;54596;43.216;27.904;2022-07-04T02:06:30;19.15;71.44
67799;SHT30;54596;43.216;27.904;2022-07-04T02:08:56;19.13;71.54
67799;SHT30;54596;43.216;27.904;2022-07-04T02:11:40;19.16;71.17
67799;SHT30;54596;43.216;27.904;2022-07-04T02:14:24;19.12;71.23
67799;SHT30;54596;43.216;27.904;2022-07-04T02:16:50;18.99;71.71
67799;SHT30;54596;43.216;27.904;2022-07-04T02:19:16;18.98;71.62
67799;SHT30;54596;43.216;27.904;2022-07-04T02:21:41;18.99;71.35
67799;SHT30;54596;43.216;27.904;2022-07-04T02:24:07;19.05;71.03
67799;SHT30;54596;43.216;27.904;2022-07-04T02:26:32;19.06;70.90
67799;SHT30;54596;43.216;27.904;2022-07-04T02:28:58;18.94;71.29
67799;SHT30;54596;43.216;27.904;2022-07-04T02:31:23;18.92;71.38
67799;SHT30;54596;43.216;27.904;2022-07-04T02:33:49;18.96;71.30
67799;SHT30;54596;43.216;27.904;2022-07-04T02:36:14;18.99;71.28
67799;SHT30;54596;43.216;27.904;2022-07-04T02:38:40;19.01;71.27
67799;SHT30;54596;43.216;27.904;2022-07-04T02:41:05;18.94;71.93
67799;SHT30;54596;43.216;27.904;2022-07-04T02:43:31;18.95;72.29
67799;SHT30;54596;43.216;27.904;2022-07-04T02:45:56;18.95;72.68
67799;SHT30;54596;43.216;27.904;2022-07-04T02:48:22;18.91;73.17
67799;SHT30;54596;43.216;27.904;2022-07-04T02:50:47;18.84;73.70
67799;SHT30;54596;43.216;27.904;2022-07-04T02:53:13;18.84;74.22
67799;SHT30;54596;43.216;27.904;2022-07-04T02:55:38;18.83;74.64
67799;SHT30;54596;43.216;27.904;2022-07-04T02:58:04;18.77;75.44
67799;SHT30;54596;43.216;27.904;2022-07-04T03:00:29;18.75;75.81
67799;SHT30;54596;43.216;27.904;2022-07-04T03:02:55;18.78;75.86
67799;SHT30;54596;43.216;27.904;2022-07-04T03:05:20;18.83;75.84
67799;SHT30;54596;43.216;27.904;2022-07-04T03:07:46;18.83;75.86
67799;SHT30;54596;43.216;27.904;2022-07-04T03:10:11;18.84;76.16
67799;SHT30;54596;43.216;27.904;2022-07-04T03:12:37;18.84;76.14
67799;SHT30;54596;43.216;27.904;2022-07-04T03:15:03;18.79;76.37
67799;SHT30;54596;43.216;27.904;2022-07-04T03:17:28;18.84;76.51
67799;SHT30;54596;43.216;27.904;2022-07-04T03:19:57;18.88;76.34
67799;SHT30;54596;43.216;27.904;2022-07-04T03:22:23;18.89;75.67
67799;SHT30;54596;43.216;27.904;2022-07-04T03:24:48;18.96;75.49
67799;SHT30;54596;43.216;27.904;2022-07-04T03:27:14;19.01;75.40
67799;SHT30;54596;43.216;27.904;2022-07-04T03:29:40;19.06;75.20
67799;SHT30;54596;43.216;27.904;2022-07-04T03:32:06;19.12;74.75
67799;SHT30;54596;43.216;27.904;2022-07-04T03:34:32;19.23;74.32
67799;SHT30;54596;43.216;27.904;2022-07-04T03:36:57;19.38;73.54
67799;SHT30;54596;43.216;27.904;2022-07-04T03:39:23;19.47;72.96
67799;SHT30;54596;43.216;27.904;2022-07-04T03:41:49;19.50;72.38
67799;SHT30;54596;43.216;27.904;2022-07-04T03:44:14;19.51;72.45
67799;SHT30;54596;43.216;27.904;2022-07-04T03:46:40;19.61;71.76
67799;SHT30;54596;43.216;27.904;2022-07-04T03:49:06;19.61;71.50
67799;SHT30;54596;43.216;27.904;2022-07-04T03:51:31;19.67;71.18
67799;SHT30;54596;43.216;27.904;2022-07-04T03:53:57;19.75;70.89
67799;SHT30;54596;43.216;27.904;2022-07-04T03:56:22;19.81;70.35
67799;SHT30;54596;43.216;27.904;2022-07-04T03:58:48;19.91;70.23
67799;SHT30;54596;43.216;27.904;2022-07-04T04:01:20;19.92;69.85
67799;SHT30;54596;43.216;27.904;2022-07-04T04:03:46;20.00;69.33
67799;SHT30;54596;43.216;27.904;2022-07-04T04:06:30;20.04;69.18
67799;SHT30;54596;43.216;27.904;2022-07-04T04:08:56;20.06;69.27
67799;SHT30;54596;43.216;27.904;2022-07-04T04:11:22;20.15;69.09
67799;SHT30;54596;43.216;27.904;2022-07-04T04:13:48;20.20;68.91
67799;SHT30;54596;43.216;27.904;2022-07-04T04:16:14;20.22;68.94
67799;SHT30;54596;43.216;27.904;2022-07-04T04:18:40;20.25;68.84
67799;SHT30;54596;43.216;27.904;2022-07-04T04:21:06;20.27;68.48
67799;SHT30;54596;43.216;27.904;2022-07-04T04:23:32;20.30;68.49
67799;SHT30;54596;43.216;27.904;2022-07-04T04:25:57;20.40;68.40
67799;SHT30;54596;43.216;27.904;2022-07-04T04:28:23;20.48;68.23
67799;SHT30;54596;43.216;27.904;2022-07-04T04:30:50;20.57;67.93
67799;SHT30;54596;43.216;27.904;2022-07-04T04:33:15;20.67;67.61
67799;SHT30;54596;43.216;27.904;2022-07-04T04:35:41;20.77;67.00
67799;SHT30;54596;43.216;27.904;2022-07-04T04:38:07;20.88;66.87
67799;SHT30;54596;43.216;27.904;2022-07-04T04:40:32;20.95;66.59
67799;SHT30;54596;43.216;27.904;2022-07-04T04:42:58;21.02;66.34
67799;SHT30;54596;43.216;27.904;2022-07-04T04:45:24;21.19;65.96
67799;SHT30;54596;43.216;27.904;2022-07-04T04:47:49;21.30;65.54
67799;SHT30;54596;43.216;27.904;2022-07-04T04:50:15;21.40;65.41
67799;SHT30;54596;43.216;27.904;2022-07-04T04:52:41;21.46;65.48
67799;SHT30;54596;43.216;27.904;2022-07-04T04:55:07;21.55;65.30
67799;SHT30;54596;43.216;27.904;2022-07-04T04:57:33;21.61;65.23
67799;SHT30;54596;43.216;27.904;2022-07-04T04:59:59;21.75;65.25
67799;SHT30;54596;43.216;27.904;2022-07-04T05:02:24;21.82;64.91
67799;SHT30;54596;43.216;27.904;2022-07-04T05:04:50;22.00;64.60
67799;SHT30;54596;43.216;27.904;2022-07-04T05:07:15;22.19;64.09
67799;SHT30;54596;43.216;27.904;2022-07-04T05:09:41;22.32;63.69
67799;SHT30;54596;43.216;27.904;2022-07-04T05:12:07;22.47;63.40
67799;SHT30;54596;43.216;27.904;2022-07-04T05:14:32;22.67;63.06
67799;SHT30;54596;43.216;27.904;2022-07-04T05:16:58;22.89;61.86
67799;SHT30;54596;43.216;27.904;2022-07-04T05:19:23;23.15;61.74
67799;SHT30;54596;43.216;27.904;2022-07-04T05:21:49;23.34;61.01
67799;SHT30;54596;43.216;27.904;2022-07-04T05:24:14;23.74;60.07
67799;SHT30;54596;43.216;27.904;2022-07-04T05:26:41;24.48;58.34
67799;SHT30;54596;43.216;27.904;2022-07-04T05:29:07;25.61;55.86
67799;SHT30;54596;43.216;27.904;2022-07-04T05:31:32;27.06;52.53
67799;SHT30;54596;43.216;27.904;2022-07-04T05:33:58;28.85;47.87
67799;SHT30;54596;43.216;27.904;2022-07-04T05:36:24;30.58;44.75
67799;SHT30;54596;43.216;27.904;2022-07-04T05:38:50;32.33;41.12
67799;SHT30;54596;43.216;27.904;2022-07-04T05:41:16;33.54;38.81
67799;SHT30;54596;43.216;27.904;2022-07-04T05:43:42;34.79;36.88
67799;SHT30;54596;43.216;27.904;2022-07-04T05:46:07;35.57;36.36
67799;SHT30;54596;43.216;27.904;2022-07-04T05:48:33;35.92;35.20
67799;SHT30;54596;43.216;27.904;2022-07-04T05:50:59;37.06;33.73
67799;SHT30;54596;43.216;27.904;2022-07-04T05:53:24;37.61;33.42
67799;SHT30;54596;43.216;27.904;2022-07-04T05:55:50;36.98;34.56
67799;SHT30;54596;43.216;27.904;2022-07-04T05:58:15;36.79;34.74
67799;SHT30;54596;43.216;27.904;2022-07-04T06:00:41;37.98;33.18
67799;SHT30;54596;43.216;27.904;2022-07-04T06:03:07;38.29;32.66
67799;SHT30;54596;43.216;27.904;2022-07-04T06:05:33;38.82;31.94
67799;SHT30;54596;43.216;27.904;2022-07-04T06:07:58;39.33;31.88
67799;SHT30;54596;43.216;27.904;2022-07-04T06:10:24;39.26;32.04
67799;SHT30;54596;43.216;27.904;2022-07-04T06:12:49;39.18;32.05
67799;SHT30;54596;43.216;27.904;2022-07-04T06:15:15;39.78;31.20
67799;SHT30;54596;43.216;27.904;2022-07-04T06:17:41;39.77;31.45
67799;SHT30;54596;43.216;27.904;2022-07-04T06:20:07;38.79;32.66
67799;SHT30;54596;43.216;27.904;2022-07-04T06:22:43;37.03;34.92
67799;SHT30;54596;43.216;27.904;2022-07-04T06:25:14;36.89;35.24
67799;SHT30;54596;43.216;27.904;2022-07-04T06:27:41;36.70;35.26
67799;SHT30;54596;43.216;27.904;2022-07-04T06:30:07;36.82;35.17
67799;SHT30;54596;43.216;27.904;2022-07-04T06:32:53;36.91;34.50
67799;SHT30;54596;43.216;27.904;2022-07-04T06:35:22;38.09;33.40
67799;SHT30;54596;43.216;27.904;2022-07-04T06:38:06;39.03;32.27
67799;SHT30;54596;43.216;27.904;2022-07-04T06:40:32;39.56;31.47
67799;SHT30;54596;43.216;27.904;2022-07-04T06:42:58;38.88;32.21
67799;SHT30;54596;43.216;27.904;2022-07-04T06:45:24;39.45;31.51
67799;SHT30;54596;43.216;27.904;2022-07-04T06:47:50;38.77;32.42
67799;SHT30;54596;43.216;27.904;2022-07-04T06:50:15;38.23;32.87
67799;SHT30;54596;43.216;27.904;2022-07-04T06:52:41;39.40;32.05
67799;SHT30;54596;43.216;27.904;2022-07-04T06:55:07;37.33;34.14
67799;SHT30;54596;43.216;27.904;2022-07-04T06:57:33;37.93;33.49
67799;SHT30;54596;43.216;27.904;2022-07-04T06:59:59;38.90;32.53
67799;SHT30;54596;43.216;27.904;2022-07-04T07:02:25;39.47;31.62
67799;SHT30;54596;43.216;27.904;2022-07-04T07:04:53;39.26;32.16
67799;SHT30;54596;43.216;27.904;2022-07-04T07:07:19;39.36;32.26
67799;SHT30;54596;43.216;27.904;2022-07-04T07:09:44;38.86;32.45
67799;SHT30;54596;43.216;27.904;2022-07-04T07:12:10;39.58;31.52
67799;SHT30;54596;43.216;27.904;2022-07-04T07:14:35;39.70;31.59
67799;SHT30;54596;43.216;27.904;2022-07-04T07:17:01;39.51;31.62
67799;SHT30;54596;43.216;27.904;2022-07-04T07:19:27;39.46;32.04
67799;SHT30;54596;43.216;27.904;2022-07-04T07:21:53;38.39;33.47
67799;SHT30;54596;43.216;27.904;2022-07-04T07:24:18;38.36;33.42
67799;SHT30;54596;43.216;27.904;2022-07-04T07:26:44;39.94;31.94
67799;SHT30;54596;43.216;27.904;2022-07-04T07:29:09;39.80;31.98
67799;SHT30;54596;43.216;27.904;2022-07-04T07:31:35;40.73;30.83
67799;SHT30;54596;43.216;27.904;2022-07-04T07:34:00;40.19;31.49
67799;SHT30;54596;43.216;27.904;2022-07-04T07:36:26;39.88;32.14
67799;SHT30;54596;43.216;27.904;2022-07-04T07:38:51;40.40;31.49
67799;SHT30;54596;43.216;27.904;2022-07-04T07:41:18;40.98;30.58
67799;SHT30;54596;43.216;27.904;2022-07-04T07:43:44;40.13;31.31
67799;SHT30;54596;43.216;27.904;2022-07-04T07:46:09;40.77;30.99
67799;SHT30;54596;43.216;27.904;2022-07-04T07:48:35;39.89;32.12
67799;SHT30;54596;43.216;27.904;2022-07-04T07:51:00;39.29;32.70
67799;SHT30;54596;43.216;27.904;2022-07-04T07:53:26;39.73;32.28
67799;SHT30;54596;43.216;27.904;2022-07-04T07:55:52;39.95;31.81
67799;SHT30;54596;43.216;27.904;2022-07-04T07:58:17;38.61;33.69
67799;SHT30;54596;43.216;27.904;2022-07-04T08:00:45;38.63;33.86
67799;SHT30;54596;43.216;27.904;2022-07-04T08:03:10;39.01;33.31
67799;SHT30;54596;43.216;27.904;2022-07-04T08:05:55;39.75;32.70
67799;SHT30;54596;43.216;27.904;2022-07-04T08:08:20;38.98;32.46
67799;SHT30;54596;43.216;27.904;2022-07-04T08:10:48;37.92;34.34
67799;SHT30;54596;43.216;27.904;2022-07-04T08:13:14;36.17;36.09
67799;SHT30;54596;43.216;27.904;2022-07-04T08:15:39;36.37;36.36
67799;SHT30;54596;43.216;27.904;2022-07-04T08:18:05;35.20;38.67
67799;SHT30;54596;43.216;27.904;2022-07-04T08:20:30;35.00;38.98
67799;SHT30;54596;43.216;27.904;2022-07-04T08:22:56;34.39;37.73
67799;SHT30;54596;43.216;27.904;2022-07-04T08:25:21;33.88;39.73
67799;SHT30;54596;43.216;27.904;2022-07-04T08:27:47;33.17;38.40
67799;SHT30;54596;43.216;27.904;2022-07-04T08:30:12;32.98;37.46
67799;SHT30;54596;43.216;27.904;2022-07-04T08:32:38;33.37;39.34
67799;SHT30;54596;43.216;27.904;2022-07-04T08:35:04;33.41;38.04
67799;SHT30;54596;43.216;27.904;2022-07-04T08:37:30;32.67;37.34
67799;SHT30;54596;43.216;27.904;2022-07-04T08:39:55;32.48;35.19
67799;SHT30;54596;43.216;27.904;2022-07-04T08:42:21;32.20;36.39
67799;SHT30;54596;43.216;27.904;2022-07-04T08:44:51;32.35;38.43
67799;SHT30;54596;43.216;27.904;2022-07-04T08:47:20;32.64;39.54
67799;SHT30;54596;43.216;27.904;2022-07-04T08:50:16;32.89;39.19
67799;SHT30;54596;43.216;27.904;2022-07-04T08:52:53;32.19;35.93
67799;SHT30;54596;43.216;27.904;2022-07-04T08:55:19;31.99;32.37
67799;SHT30;54596;43.216;27.904;2022-07-04T08:58:04;32.10;27.30
67799;SHT30;54596;43.216;27.904;2022-07-04T09:00:50;32.05;28.89
67799;SHT30;54596;43.216;27.904;2022-07-04T09:03:18;31.47;30.23
67799;SHT30;54596;43.216;27.904;2022-07-04T09:05:44;31.58;32.40
67799;SHT30;54596;43.216;27.904;2022-07-04T09:08:10;30.80;29.15
67799;SHT30;54596;43.216;27.904;2022-07-04T09:10:36;30.65;28.56
67799;SHT30;54596;43.216;27.904;2022-07-04T09:13:04;30.74;29.43
67799;SHT30;54596;43.216;27.904;2022-07-04T09:15:30;30.68;31.50
67799;SHT30;54596;43.216;27.904;2022-07-04T09:17:57;30.57;24.59
67799;SHT30;54596;43.216;27.904;2022-07-04T09:20:23;30.28;26.85
67799;SHT30;54596;43.216;27.904;2022-07-04T09:22:50;29.83;26.35
67799;SHT30;54596;43.216;27.904;2022-07-04T09:25:17;29.83;24.64
67799;SHT30;54596;43.216;27.904;2022-07-04T09:27:44;29.86;25.30
67799;SHT30;54596;43.216;27.904;2022-07-04T09:30:20;29.80;26.78
67799;SHT30;54596;43.216;27.904;2022-07-04T09:32:49;29.59;27.86
67799;SHT30;54596;43.216;27.904;2022-07-04T09:35:20;29.38;28.11
67799;SHT30;54596;43.216;27.904;2022-07-04T09:37:48;29.16;27.65
67799;SHT30;54596;43.216;27.904;2022-07-04T09:42:59;28.98;32.49
67799;SHT30;54596;43.216;27.904;2022-07-04T09:45:25;28.89;36.95
67799;SHT30;54596;43.216;27.904;2022-07-04T09:47:57;28.61;29.01
67799;SHT30;54596;43.216;27.904;2022-07-04T09:50:24;28.52;36.71
67799;SHT30;54596;43.216;27.904;2022-07-04T09:53:02;28.54;35.60
67799;SHT30;54596;43.216;27.904;2022-07-04T09:55:32;28.28;34.76
67799;SHT30;54596;43.216;27.904;2022-07-04T09:58:02;28.21;38.71
67799;SHT30;54596;43.216;27.904;2022-07-04T10:00:30;28.31;42.27
67799;SHT30;54596;43.216;27.904;2022-07-04T10:05:45;27.92;43.82
67799;SHT30;54596;43.216;27.904;2022-07-04T10:08:12;28.10;40.50
67799;SHT30;54596;43.216;27.904;2022-07-04T10:10:38;27.96;42.41
67799;SHT30;54596;43.216;27.904;2022-07-04T10:13:07;27.86;40.40
67799;SHT30;54596;43.216;27.904;2022-07-04T10:15:35;27.96;31.43
67799;SHT30;54596;43.216;27.904;2022-07-04T10:18:03;27.93;33.02
67799;SHT30;54596;43.216;27.904;2022-07-04T10:20:29;28.05;29.67
67799;SHT30;54596;43.216;27.904;2022-07-04T10:22:56;28.05;31.43
67799;SHT30;54596;43.216;27.904;2022-07-04T10:25:22;27.90;33.30
67799;SHT30;54596;43.216;27.904;2022-07-04T10:27:47;27.71;32.96
67799;SHT30;54596;43.216;27.904;2022-07-04T10:30:26;27.78;36.19
67799;SHT30;54596;43.216;27.904;2022-07-04T10:32:54;27.63;35.48
67799;SHT30;54596;43.216;27.904;2022-07-04T10:38:52;27.63;40.07
67799;SHT30;54596;43.216;27.904;2022-07-04T10:41:22;27.72;36.21
67799;SHT30;54596;43.216;27.904;2022-07-04T10:51:41;27.45;39.16
67799;SHT30;54596;43.216;27.904;2022-07-04T10:56:55;27.41;42.62
67799;SHT30;54596;43.216;27.904;2022-07-04T11:01:57;27.26;37.74
67799;SHT30;54596;43.216;27.904;2022-07-04T11:07:15;27.31;39.01
67799;SHT30;54596;43.216;27.904;2022-07-04T11:09:41;27.30;39.99
67799;SHT30;54596;43.216;27.904;2022-07-04T11:12:08;27.37;44.12
67799;SHT30;54596;43.216;27.904;2022-07-04T11:17:20;27.31;38.07
67799;SHT30;54596;43.216;27.904;2022-07-04T11:19:45;27.44;43.71
67799;SHT30;54596;43.216;27.904;2022-07-04T11:22:11;27.24;42.50
67799;SHT30;54596;43.216;27.904;2022-07-04T11:24:38;27.14;46.84
67799;SHT30;54596;43.216;27.904;2022-07-04T11:27:07;27.03;48.75
67799;SHT30;54596;43.216;27.904;2022-07-04T11:29:33;26.76;51.13
67799;SHT30;54596;43.216;27.904;2022-07-04T11:31:59;26.74;48.27
67799;SHT30;54596;43.216;27.904;2022-07-04T11:34:31;26.65;49.06
67799;SHT30;54596;43.216;27.904;2022-07-04T11:36:56;26.58;48.58
67799;SHT30;54596;43.216;27.904;2022-07-04T11:39:23;26.59;50.19
67799;SHT30;54596;43.216;27.904;2022-07-04T11:41:52;26.65;52.33
67799;SHT30;54596;43.216;27.904;2022-07-04T11:44:39;26.85;51.81
67799;SHT30;54596;43.216;27.904;2022-07-04T11:47:38;26.86;51.22
67799;SHT30;54596;43.216;27.904;2022-07-04T11:50:06;26.61;51.84
67799;SHT30;54596;43.216;27.904;2022-07-04T11:55:04;26.49;49.67
67799;SHT30;54596;43.216;27.904;2022-07-04T11:57:37;26.41;47.38
67799;SHT30;54596;43.216;27.904;2022-07-04T12:00:09;26.40;48.47
67799;SHT30;54596;43.216;27.904;2022-07-04T12:02:36;26.37;48.63
67799;SHT30;54596;43.216;27.904;2022-07-04T12:05:03;26.38;48.87
67799;SHT30;54596;43.216;27.904;2022-07-04T12:07:31;26.37;48.97
67799;SHT30;54596;43.216;27.904;2022-07-04T12:10:13;26.57;49.15
67799;SHT30;54596;43.216;27.904;2022-07-04T12:15:18;26.78;48.46
67799;SHT30;54596;43.216;27.904;2022-07-04T12:17:43;26.85;48.67
67799;SHT30;54596;43.216;27.904;2022-07-04T12:20:14;26.61;48.94
67799;SHT30;54596;43.216;27.904;2022-07-04T12:22:42;26.47;48.83
67799;SHT30;54596;43.216;27.904;2022-07-04T12:25:23;26.64;49.05
67799;SHT30;54596;43.216;27.904;2022-07-04T12:27:53;26.58;49.47
67799;SHT30;54596;43.216;27.904;2022-07-04T12:30:18;26.59;49.06
67799;SHT30;54596;43.216;27.904;2022-07-04T12:32:46;26.64;48.97
67799;SHT30;54596;43.216;27.904;2022-07-04T12:38:03;26.48;49.98
67799;SHT30;54596;43.216;27.904;2022-07-04T12:40:28;26.41;50.78
67799;SHT30;54596;43.216;27.904;2022-07-04T12:42:58;26.37;51.36
67799;SHT30;54596;43.216;27.904;2022-07-04T12:45:23;26.33;51.82
67799;SHT30;54596;43.216;27.904;2022-07-04T12:47:49;26.33;50.16
67799;SHT30;54596;43.216;27.904;2022-07-04T12:50:15;26.38;50.37
67799;SHT30;54596;43.216;27.904;2022-07-04T12:52:40;26.33;50.70
67799;SHT30;54596;43.216;27.904;2022-07-04T12:55:09;26.27;51.15
67799;SHT30;54596;43.216;27.904;2022-07-04T12:57:35;26.31;50.78
67799;SHT30;54596;43.216;27.904;2022-07-04T13:00:03;26.34;51.25
67799;SHT30;54596;43.216;27.904;2022-07-04T13:02:30;26.24;50.90
67799;SHT30;54596;43.216;27.904;2022-07-04T13:04:55;26.30;50.64
67799;SHT30;54596;43.216;27.904;2022-07-04T13:07:22;26.27;51.28
67799;SHT30;54596;43.216;27.904;2022-07-04T13:09:47;26.29;49.62
67799;SHT30;54596;43.216;27.904;2022-07-04T13:12:13;26.20;49.97
67799;SHT30;54596;43.216;27.904;2022-07-04T13:14:52;26.21;50.27
67799;SHT30;54596;43.216;27.904;2022-07-04T13:17:19;26.23;50.69
67799;SHT30;54596;43.216;27.904;2022-07-04T13:19:44;26.26;50.96
67799;SHT30;54596;43.216;27.904;2022-07-04T13:22:10;26.21;50.75
67799;SHT30;54596;43.216;27.904;2022-07-04T13:24:35;26.09;51.35
67799;SHT30;54596;43.216;27.904;2022-07-04T13:27:01;26.14;51.26
67799;SHT30;54596;43.216;27.904;2022-07-04T13:29:26;26.26;50.94
67799;SHT30;54596;43.216;27.904;2022-07-04T13:31:52;26.27;50.46
67799;SHT30;54596;43.216;27.904;2022-07-04T13:34:17;26.16;49.27
67799;SHT30;54596;43.216;27.904;2022-07-04T13:36:43;26.20;49.85
67799;SHT30;54596;43.216;27.904;2022-07-04T13:39:10;26.13;50.37
67799;SHT30;54596;43.216;27.904;2022-07-04T13:41:36;26.23;50.36
67799;SHT30;54596;43.216;27.904;2022-07-04T13:44:04;26.16;50.62
67799;SHT30;54596;43.216;27.904;2022-07-04T13:46:29;26.10;50.32
67799;SHT30;54596;43.216;27.904;2022-07-04T13:48:57;25.96;51.22
67799;SHT30;54596;43.216;27.904;2022-07-04T13:51:22;25.95;51.47
67799;SHT30;54596;43.216;27.904;2022-07-04T13:53:48;25.84;50.56
67799;SHT30;54596;43.216;27.904;2022-07-04T13:56:13;25.89;51.11
67799;SHT30;54596;43.216;27.904;2022-07-04T13:58:44;25.93;51.67
67799;SHT30;54596;43.216;27.904;2022-07-04T14:01:09;25.97;50.29
67799;SHT30;54596;43.216;27.904;2022-07-04T14:03:35;25.90;50.69
67799;SHT30;54596;43.216;27.904;2022-07-04T14:06:00;25.90;51.75
67799;SHT30;54596;43.216;27.904;2022-07-04T14:08:26;25.90;52.02
67799;SHT30;54596;43.216;27.904;2022-07-04T14:10:51;25.92;51.14
67799;SHT30;54596;43.216;27.904;2022-07-04T14:13:17;25.85;50.69
67799;SHT30;54596;43.216;27.904;2022-07-04T14:15:43;25.79;50.90
67799;SHT30;54596;43.216;27.904;2022-07-04T14:18:08;25.84;51.31
67799;SHT30;54596;43.216;27.904;2022-07-04T14:20:39;25.90;49.74
67799;SHT30;54596;43.216;27.904;2022-07-04T14:23:05;25.92;50.19
67799;SHT30;54596;43.216;27.904;2022-07-04T14:25:30;25.95;50.24
67799;SHT30;54596;43.216;27.904;2022-07-04T14:27:56;26.02;48.58
67799;SHT30;54596;43.216;27.904;2022-07-04T14:30:21;25.99;49.40
67799;SHT30;54596;43.216;27.904;2022-07-04T14:32:47;25.89;50.32
67799;SHT30;54596;43.216;27.904;2022-07-04T14:35:12;25.90;50.45
67799;SHT30;54596;43.216;27.904;2022-07-04T14:37:38;25.86;51.98
67799;SHT30;54596;43.216;27.904;2022-07-04T14:40:04;25.92;51.55
67799;SHT30;54596;43.216;27.904;2022-07-04T14:42:30;25.88;49.59
67799;SHT30;54596;43.216;27.904;2022-07-04T14:44:55;25.79;49.92
67799;SHT30;54596;43.216;27.904;2022-07-04T14:47:21;25.85;50.06
67799;SHT30;54596;43.216;27.904;2022-07-04T14:49:47;25.82;51.30
67799;SHT30;54596;43.216;27.904;2022-07-04T14:52:12;25.78;50.67
67799;SHT30;54596;43.216;27.904;2022-07-04T14:54:38;25.84;50.41
67799;SHT30;54596;43.216;27.904;2022-07-04T14:57:03;25.76;50.40
67799;SHT30;54596;43.216;27.904;2022-07-04T14:59:29;25.60;50.54
67799;SHT30;54596;43.216;27.904;2022-07-04T15:01:56;25.68;52.25
67799;SHT30;54596;43.216;27.904;2022-07-04T15:04:21;25.67;51.23
67799;SHT30;54596;43.216;27.904;2022-07-04T15:06:47;25.72;51.27
67799;SHT30;54596;43.216;27.904;2022-07-04T15:09:13;25.68;51.85
67799;SHT30;54596;43.216;27.904;2022-07-04T15:11:39;25.64;53.06
67799;SHT30;54596;43.216;27.904;2022-07-04T15:14:04;25.67;53.29
67799;SHT30;54596;43.216;27.904;2022-07-04T15:16:30;25.61;52.25
67799;SHT30;54596;43.216;27.904;2022-07-04T15:18:55;25.57;52.12
67799;SHT30;54596;43.216;27.904;2022-07-04T15:21:21;25.58;51.61
67799;SHT30;54596;43.216;27.904;2022-07-04T15:24:06;25.51;51.72
67799;SHT30;54596;43.216;27.904;2022-07-04T15:26:44;25.51;51.39
67799;SHT30;54596;43.216;27.904;2022-07-04T15:29:11;25.54;52.22
67799;SHT30;54596;43.216;27.904;2022-07-04T15:31:37;25.58;52.82
67799;SHT30;54596;43.216;27.904;2022-07-04T15:34:02;25.57;52.50
67799;SHT30;54596;43.216;27.904;2022-07-04T15:36:28;25.51;51.41
67799;SHT30;54596;43.216;27.904;2022-07-04T15:38:53;25.50;52.84
67799;SHT30;54596;43.216;27.904;2022-07-04T15:41:19;25.54;52.77
67799;SHT30;54596;43.216;27.904;2022-07-04T15:43:44;25.48;52.43
67799;SHT30;54596;43.216;27.904;2022-07-04T15:46:10;25.44;53.25
67799;SHT30;54596;43.216;27.904;2022-07-04T15:48:37;25.40;53.86